Terminal Aerodrome Forecast
Issued by NWS Northern Indiana

Home | Current Version | Previous Version | Text Only | Print | Product List | Glossary Off
Versions: 1 2 3 4 5 6 7 8 9 10 11 12 13 14 15 16

000
FTUS43 KIWX 160521
TAFFWA
TAF
KFWA 160521Z 1606/1706 13004KT P6SM BKN250
     FM160800 13004KT 4SM BR SCT150
      TEMPO 1609/1613 2SM BR SCT140
     FM161300 13005KT P6SM SCT100=

USA.gov is the U.S. government's official web portal to all federal, state and local government web resources and services.